createdAt,value
2023-04-05T00:02:29.979Z,2.87
2023-04-05T00:04:59.836Z,2.95
2023-04-05T00:07:28.416Z,2.81
2023-04-05T00:09:56.787Z,2.72
2023-04-05T00:12:25.041Z,2.74
2023-04-05T00:14:54.655Z,2.79
2023-04-05T00:17:23.017Z,2.73
2023-04-05T00:19:57.479Z,2.78
2023-04-05T00:22:27.277Z,2.85
2023-04-05T00:24:55.839Z,2.86
2023-04-05T00:27:23.962Z,2.89
2023-04-05T00:29:52.132Z,2.98
2023-04-05T00:32:22.236Z,3.15
2023-04-05T00:34:51.793Z,3.20
2023-04-05T00:37:19.813Z,3.31
2023-04-05T00:39:48.460Z,3.28
2023-04-05T00:42:17.024Z,3.16
2023-04-05T00:44:45.107Z,3.11
2023-04-05T00:47:13.287Z,3.02
2023-04-05T00:49:43.392Z,2.86
2023-04-05T00:52:11.716Z,2.79
2023-04-05T00:54:41.682Z,2.83
2023-04-05T00:57:09.878Z,2.82
2023-04-05T00:59:39.236Z,2.87
2023-04-05T01:02:13.646Z,2.91
2023-04-05T01:04:50.100Z,2.78
2023-04-05T01:07:24.864Z,2.84
2023-04-05T01:09:55.054Z,2.84
2023-04-05T01:12:25.186Z,2.66
2023-04-05T01:14:54.380Z,2.66
2023-04-05T01:17:23.104Z,2.69
2023-04-05T01:19:54.525Z,2.56
2023-04-05T01:22:43.506Z,2.53
2023-04-05T01:25:24.224Z,2.44
2023-04-05T01:28:07.169Z,2.31
2023-04-05T01:30:39.065Z,2.29
2023-04-05T01:33:15.754Z,2.08
2023-04-05T01:35:47.640Z,1.97
2023-04-05T01:38:19.127Z,1.91
2023-04-05T01:40:47.763Z,1.86
2023-04-05T01:43:16.130Z,1.85
2023-04-05T01:45:46.179Z,1.91
2023-04-05T01:48:14.619Z,1.81
2023-04-05T01:50:43.511Z,1.72
2023-04-05T01:53:11.928Z,1.58
2023-04-05T01:55:39.965Z,1.46
2023-04-05T01:58:09.974Z,1.39
2023-04-05T02:00:38.970Z,1.29
2023-04-05T02:03:08.904Z,1.21
2023-04-05T02:05:37.591Z,1.18
2023-04-05T02:08:05.578Z,1.11
2023-04-05T02:10:33.875Z,1.08
2023-04-05T02:13:02.199Z,1.02
2023-04-05T02:15:32.951Z,1.15
2023-04-05T02:18:02.433Z,1.22
2023-04-05T02:20:33.285Z,1.18
2023-04-05T02:23:02.109Z,1.17
2023-04-05T02:25:30.349Z,1.14
2023-04-05T02:27:58.960Z,1.18
2023-04-05T02:30:29.069Z,1.12
2023-04-05T02:32:58.178Z,1.11
2023-04-05T02:35:26.271Z,0.96
2023-04-05T02:37:56.856Z,0.84
2023-04-05T02:40:25.640Z,0.69
2023-04-05T02:42:53.496Z,0.65
2023-04-05T02:45:21.673Z,0.72
2023-04-05T02:47:50.389Z,0.60
2023-04-05T02:50:20.699Z,0.64
2023-04-05T02:52:49.229Z,0.71
2023-04-05T02:55:19.711Z,0.57
2023-04-05T02:57:47.669Z,0.63
2023-04-05T03:00:26.384Z,0.68
2023-04-05T03:02:56.706Z,0.68
2023-04-05T03:05:25.492Z,0.60
2023-04-05T03:07:54.799Z,0.64
2023-04-05T03:10:35.140Z,0.53
2023-04-05T03:13:12.725Z,0.49
2023-04-05T03:15:42.504Z,0.44
2023-04-05T03:18:14.586Z,0.39
2023-04-05T03:20:46.421Z,0.39
2023-04-05T03:23:20.437Z,0.33
2023-04-05T03:25:56.844Z,0.32
2023-04-05T03:28:28.415Z,0.30
2023-04-05T03:31:02.012Z,0.23
2023-04-05T03:33:30.819Z,0.27
2023-04-05T03:35:59.023Z,0.28
2023-04-05T03:38:29.562Z,0.31
2023-04-05T03:41:13.057Z,0.28
2023-04-05T03:43:41.201Z,0.31
2023-04-05T03:46:09.770Z,0.30
2023-04-05T03:48:37.984Z,0.44
2023-04-05T03:51:06.357Z,0.48
2023-04-05T03:53:34.518Z,0.45
2023-04-05T03:56:03.976Z,0.46
2023-04-05T03:58:49.713Z,0.46
2023-04-05T04:01:23.924Z,0.37
2023-04-05T04:03:52.103Z,0.41
2023-04-05T04:06:20.347Z,0.37
2023-04-05T04:08:48.461Z,0.36
2023-04-05T04:11:16.742Z,0.34
2023-04-05T04:13:46.396Z,0.29
2023-04-05T04:16:23.669Z,-0.19
2023-04-05T04:19:14.947Z,-0.45
2023-04-05T04:21:53.493Z,-0.60
2023-04-05T04:24:32.859Z,-0.66
2023-04-05T04:27:29.514Z,-0.71
2023-04-05T04:30:22.801Z,-0.64
2023-04-05T04:33:09.337Z,-0.78
2023-04-05T04:35:56.651Z,-0.91
2023-04-05T04:38:48.386Z,-0.88
2023-04-05T04:41:38.468Z,-0.92
2023-04-05T04:44:31.596Z,-0.79
2023-04-05T04:47:24.300Z,-0.83
2023-04-05T04:50:05.431Z,-0.78
2023-04-05T04:52:35.034Z,-0.74
2023-04-05T04:55:04.335Z,-0.52
2023-04-05T04:57:32.492Z,-0.43
2023-04-05T05:00:00.705Z,-0.27
2023-04-05T05:02:31.456Z,-0.02
2023-04-05T05:04:59.796Z,0.10
2023-04-05T05:07:27.959Z,0.26
2023-04-05T05:09:56.047Z,0.41
2023-04-05T05:12:24.770Z,0.60
2023-04-05T05:14:52.948Z,0.66
2023-04-05T05:17:25.705Z,0.77
2023-04-05T05:19:56.396Z,0.76
2023-04-05T05:22:25.134Z,0.77
2023-04-05T05:24:53.055Z,1.10
2023-04-05T05:27:21.810Z,1.41
2023-04-05T05:29:50.292Z,1.56
2023-04-05T05:32:18.364Z,1.73
2023-04-05T05:34:49.207Z,1.78
2023-04-05T05:37:18.633Z,1.93
2023-04-05T05:39:46.807Z,1.85
2023-04-05T05:42:14.787Z,1.81
2023-04-05T05:44:42.990Z,2.24
2023-04-05T05:47:11.484Z,2.33
2023-04-05T05:49:43.573Z,2.38
2023-04-05T05:52:11.821Z,2.40
2023-04-05T05:54:41.768Z,2.50
2023-04-05T05:57:09.931Z,2.98
2023-04-05T05:59:38.215Z,3.58
2023-04-05T06:02:08.578Z,3.66
2023-04-05T06:04:38.253Z,3.55
2023-04-05T06:07:06.536Z,3.55
2023-04-05T06:09:35.583Z,2.79
2023-04-05T06:12:06.809Z,3.77
2023-04-05T06:14:35.375Z,3.12
2023-04-05T06:17:04.520Z,3.22
2023-04-05T06:19:33.578Z,3.01
2023-04-05T06:22:02.755Z,2.95
2023-04-05T06:24:32.339Z,2.76
2023-04-05T06:27:02.148Z,3.46
2023-04-05T06:29:32.642Z,4.11
2023-04-05T06:32:03.246Z,4.92
2023-04-05T06:34:37.432Z,5.21
2023-04-05T06:37:06.517Z,4.43
2023-04-05T06:39:34.653Z,4.88
2023-04-05T06:42:02.847Z,5.19
2023-04-05T06:44:41.479Z,4.95
2023-04-05T06:47:10.177Z,5.39
2023-04-05T06:49:38.641Z,6.12
2023-04-05T06:52:07.092Z,5.88
2023-04-05T06:54:38.643Z,5.73
2023-04-05T06:57:06.861Z,6.01
2023-04-05T06:59:37.194Z,5.72
2023-04-05T07:02:06.917Z,5.86
2023-04-05T07:04:37.206Z,6.07
2023-04-05T07:07:06.784Z,6.56
2023-04-05T07:09:38.276Z,6.35
2023-04-05T07:12:08.812Z,6.34
2023-04-05T07:14:37.798Z,6.31
2023-04-05T07:17:07.854Z,7.07
2023-04-05T07:19:36.321Z,7.17
2023-04-05T07:22:04.270Z,7.51
2023-04-05T07:24:33.208Z,7.24
2023-04-05T07:27:03.058Z,6.46
2023-04-05T07:29:31.386Z,7.39
2023-04-05T07:31:59.730Z,7.86
2023-04-05T07:34:29.342Z,8.61
2023-04-05T07:36:58.076Z,8.77
2023-04-05T07:39:26.586Z,8.99
2023-04-05T07:41:54.627Z,8.48
2023-04-05T07:44:23.199Z,8.71
2023-04-05T07:46:51.761Z,8.62
2023-04-05T07:49:22.141Z,9.15
2023-04-05T07:51:55.601Z,9.12
2023-04-05T07:54:24.170Z,9.68
2023-04-05T07:56:55.472Z,9.62
2023-04-05T07:59:23.806Z,9.79
2023-04-05T08:01:52.869Z,9.84
2023-04-05T08:04:25.323Z,10.24
2023-04-05T08:06:55.021Z,10.46
2023-04-05T08:09:25.193Z,11.84
2023-04-05T08:11:54.117Z,11.31
2023-04-05T08:14:25.096Z,12.15
2023-04-05T08:16:55.036Z,11.62
2023-04-05T08:19:23.397Z,12.14
2023-04-05T08:21:52.038Z,12.33
2023-04-05T08:24:22.438Z,12.29
2023-04-05T08:26:50.598Z,11.83
2023-04-05T08:29:19.052Z,11.16
2023-04-05T08:31:48.004Z,10.91
2023-04-05T08:34:17.221Z,11.32
2023-04-05T08:36:48.877Z,11.58
2023-04-05T08:39:17.797Z,12.28
2023-04-05T08:41:50.305Z,12.09
2023-04-05T08:44:20.600Z,11.79
2023-04-05T08:46:56.261Z,11.50
2023-04-05T08:49:30.111Z,10.91
2023-04-05T08:52:01.360Z,11.68
2023-04-05T08:54:32.672Z,12.86
2023-04-05T08:57:05.988Z,12.68
2023-04-05T08:59:35.649Z,9.40
2023-04-05T09:02:07.815Z,9.06
2023-04-05T09:04:39.859Z,9.13
2023-04-05T09:07:08.751Z,9.54
2023-04-05T09:09:39.389Z,9.76
2023-04-05T09:12:11.621Z,9.48
2023-04-05T09:14:40.309Z,10.41
2023-04-05T09:17:08.847Z,11.07
2023-04-05T09:19:38.336Z,9.96
2023-04-05T09:22:07.715Z,8.90
2023-04-05T09:24:43.443Z,9.65
2023-04-05T09:27:16.089Z,10.57
2023-04-05T09:29:47.572Z,11.41
2023-04-05T09:32:19.748Z,11.54
2023-04-05T09:34:48.277Z,12.62
2023-04-05T09:37:29.223Z,14.24
2023-04-05T09:40:07.498Z,13.86
2023-04-05T09:42:45.635Z,13.68
2023-04-05T09:45:14.711Z,14.38
2023-04-05T09:48:10.189Z,14.04
2023-04-05T09:50:39.343Z,10.31
2023-04-05T09:53:09.997Z,8.97
2023-04-05T09:55:38.352Z,10.10
2023-04-05T09:58:13.135Z,11.59
2023-04-05T10:01:00.060Z,12.58
2023-04-05T10:03:47.423Z,12.45
2023-04-05T10:06:15.602Z,14.61
2023-04-05T10:08:43.750Z,14.95
2023-04-05T10:11:13.638Z,15.49
2023-04-05T10:13:45.055Z,17.65
2023-04-05T10:16:19.414Z,17.98
2023-04-05T10:18:51.727Z,16.38
2023-04-05T10:21:22.845Z,11.73
2023-04-05T10:23:56.476Z,14.45
2023-04-05T10:26:31.568Z,14.20
2023-04-05T10:29:05.145Z,15.24
2023-04-05T10:58:37.641Z,18.57
2023-04-05T12:18:48.406Z,29.04
2023-04-05T12:22:25.056Z,31.93
2023-04-05T13:37:18.272Z,32.06
2023-04-05T14:27:01.773Z,28.10
2023-04-05T14:29:39.505Z,32.25
2023-04-05T14:35:09.874Z,33.39
2023-04-05T14:40:31.497Z,29.89
2023-04-05T14:46:17.467Z,31.55
2023-04-05T14:52:07.154Z,34.65
2023-04-05T14:54:37.104Z,34.88
2023-04-05T14:57:36.130Z,35.14
2023-04-05T15:03:13.211Z,29.11
2023-04-05T15:14:32.427Z,31.81
2023-04-05T15:17:03.768Z,23.76
2023-04-05T15:30:39.856Z,27.68
2023-04-05T15:37:06.468Z,21.88
2023-04-05T16:03:27.589Z,21.43
2023-04-05T16:27:26.675Z,18.76
2023-04-05T16:29:54.973Z,15.93
2023-04-05T16:32:27.170Z,16.02
2023-04-05T16:34:56.364Z,14.71
2023-04-05T16:53:02.822Z,19.50
2023-04-05T16:56:08.679Z,21.16
2023-04-05T17:01:22.508Z,22.21
2023-04-05T17:03:53.398Z,22.68
2023-04-05T17:06:22.953Z,22.53
2023-04-05T17:08:53.483Z,22.08
2023-04-05T17:11:25.273Z,21.79
2023-04-05T17:13:55.371Z,21.25
2023-04-05T17:16:24.270Z,20.89
2023-04-05T17:18:53.810Z,20.62
2023-04-05T17:21:23.415Z,18.62
2023-04-05T17:23:55.032Z,17.17
2023-04-05T17:26:26.892Z,15.54
2023-04-05T17:28:56.130Z,14.85
2023-04-05T17:31:24.278Z,14.62
2023-04-05T17:33:56.224Z,13.68
2023-04-05T17:36:34.071Z,12.99
2023-04-05T17:39:02.218Z,12.57
2023-04-05T17:41:30.533Z,12.31
2023-04-05T17:44:06.408Z,12.01
2023-04-05T17:49:20.269Z,10.87
2023-04-05T17:51:54.964Z,10.54
2023-04-05T17:54:23.425Z,10.24
2023-04-05T17:56:58.414Z,10.04
2023-04-05T17:59:26.935Z,9.88
2023-04-05T18:01:56.774Z,9.59
2023-04-05T18:04:26.109Z,9.34
2023-04-05T18:06:56.520Z,9.25
2023-04-05T18:09:24.778Z,9.12
2023-04-05T18:11:57.123Z,9.05
2023-04-05T18:14:30.404Z,8.95
2023-04-05T18:17:10.562Z,8.69
2023-04-05T18:20:07.833Z,8.64
2023-04-05T18:22:39.872Z,8.60
2023-04-05T18:25:33.375Z,8.62
2023-04-05T18:28:22.755Z,8.59
2023-04-05T18:30:53.188Z,8.46
2023-04-05T18:33:22.692Z,8.35
2023-04-05T18:35:53.130Z,8.31
2023-04-05T18:38:23.101Z,8.29
2023-04-05T18:41:08.478Z,8.36
2023-04-05T18:43:36.737Z,8.19
2023-04-05T18:46:10.612Z,7.86
2023-04-05T18:48:39.382Z,7.55
2023-04-05T18:51:08.302Z,7.34
2023-04-05T18:53:38.197Z,7.16
2023-04-05T18:56:06.518Z,7.17
2023-04-05T18:58:40.035Z,7.22
2023-04-05T19:01:15.446Z,7.26
2023-04-05T19:03:44.069Z,7.17
2023-04-05T19:06:14.869Z,7.02
2023-04-05T19:08:48.435Z,6.90
2023-04-05T19:11:18.596Z,6.75
2023-04-05T19:13:47.930Z,6.58
2023-04-05T19:16:17.625Z,6.38
2023-04-05T19:18:46.190Z,6.30
2023-04-05T19:21:15.957Z,6.39
2023-04-05T19:23:45.425Z,6.35
2023-04-05T19:26:13.946Z,6.45
2023-04-05T19:28:43.715Z,6.55
2023-04-05T19:31:13.258Z,6.56
2023-04-05T19:33:41.396Z,6.53
2023-04-05T19:36:09.380Z,6.44
2023-04-05T19:41:26.118Z,6.20
2023-04-05T19:43:58.116Z,6.18
2023-04-05T19:46:29.520Z,6.01
2023-04-05T19:48:59.453Z,5.86
2023-04-05T19:51:28.687Z,5.75
2023-04-05T19:53:57.798Z,5.72
2023-04-05T19:56:36.868Z,5.93
2023-04-05T19:59:26.154Z,6.11
2023-04-05T20:02:01.126Z,5.90
2023-04-05T20:04:39.216Z,5.78
2023-04-05T20:07:10.382Z,5.64
2023-04-05T20:09:42.197Z,5.58
2023-04-05T20:12:16.241Z,5.52
2023-04-05T20:14:48.017Z,5.43
2023-04-05T20:17:34.147Z,5.38
2023-04-05T20:20:02.172Z,5.24
2023-04-05T20:22:32.925Z,5.18
2023-04-05T20:25:01.066Z,5.46
2023-04-05T20:27:30.859Z,5.65
2023-04-05T20:29:58.954Z,5.62
2023-04-05T20:32:28.018Z,5.52
2023-04-05T20:34:56.629Z,5.48
2023-04-05T20:37:25.962Z,5.36
2023-04-05T20:39:58.648Z,5.25
2023-04-05T20:42:26.883Z,5.10
2023-04-05T20:45:05.054Z,5.03
2023-04-05T20:47:34.228Z,4.88
2023-04-05T20:50:03.621Z,4.88
2023-04-05T20:52:32.596Z,4.92
2023-04-05T20:55:01.897Z,4.77
2023-04-05T20:57:30.904Z,4.67
2023-04-05T21:00:02.442Z,4.55
2023-04-05T21:02:31.409Z,4.51
2023-04-05T21:05:00.548Z,4.44
2023-04-05T21:07:28.921Z,4.28
2023-04-05T21:09:57.329Z,4.20
2023-04-05T21:12:25.710Z,4.16
2023-04-05T21:14:54.511Z,4.08
2023-04-05T21:17:24.300Z,3.76
2023-04-05T21:19:53.310Z,3.74
2023-04-05T21:22:24.897Z,3.78
2023-04-05T21:24:53.322Z,3.79
2023-04-05T21:27:24.880Z,3.78
2023-04-05T21:29:54.596Z,3.72
2023-04-05T21:32:24.779Z,3.97
2023-04-05T21:34:53.421Z,4.23
2023-04-05T21:37:22.228Z,4.27
2023-04-05T21:39:50.426Z,4.22
2023-04-05T21:42:19.107Z,4.15
2023-04-05T21:44:48.076Z,4.01
2023-04-05T21:47:17.574Z,3.85
2023-04-05T21:49:47.577Z,3.83
2023-04-05T21:52:17.645Z,3.97
2023-04-05T21:54:47.228Z,4.07
2023-04-05T21:57:17.895Z,4.20
2023-04-05T21:59:48.324Z,4.26
2023-04-05T22:02:16.445Z,4.22
2023-04-05T22:04:48.060Z,4.15
2023-04-05T22:07:17.303Z,4.19
2023-04-05T22:09:45.796Z,4.15
2023-04-05T22:12:15.516Z,4.06
2023-04-05T22:14:43.823Z,4.00
2023-04-05T22:17:11.934Z,3.96
2023-04-05T22:19:44.008Z,4.04
2023-04-05T22:22:15.135Z,3.94
2023-04-05T22:24:43.615Z,3.98
2023-04-05T22:27:13.596Z,3.97
2023-04-05T22:29:41.984Z,4.01
2023-04-05T22:32:10.449Z,4.16
2023-04-05T22:34:39.126Z,4.16
2023-04-05T22:37:07.315Z,4.15
2023-04-05T22:39:37.578Z,4.03
2023-04-05T22:42:06.629Z,3.98
2023-04-05T22:44:34.806Z,3.66
2023-04-05T22:47:03.416Z,3.39
2023-04-05T22:49:32.129Z,3.49
2023-04-05T22:52:02.168Z,3.61
2023-04-05T22:54:30.518Z,3.71
2023-04-05T22:57:04.199Z,3.78
2023-04-05T22:59:33.456Z,3.56
2023-04-05T23:02:01.873Z,3.34
2023-04-05T23:04:30.145Z,3.09
2023-04-05T23:06:58.397Z,3.05
2023-04-05T23:09:26.624Z,2.86
2023-04-05T23:11:54.907Z,2.67
2023-04-05T23:14:24.906Z,2.61
2023-04-05T23:16:53.277Z,2.52
2023-04-05T23:19:22.270Z,2.57
2023-04-05T23:21:51.359Z,2.59
2023-04-05T23:24:20.617Z,2.64
2023-04-05T23:26:49.909Z,2.56
2023-04-05T23:29:19.699Z,2.52
2023-04-05T23:31:50.130Z,2.56
2023-04-05T23:34:19.100Z,2.48
2023-04-05T23:36:47.581Z,2.30
2023-04-05T23:39:16.894Z,2.22
2023-04-05T23:41:46.508Z,2.19
2023-04-05T23:44:14.996Z,2.19
2023-04-05T23:46:43.453Z,2.21
2023-04-05T23:49:14.411Z,2.20
2023-04-05T23:51:43.286Z,2.17
2023-04-05T23:54:12.080Z,2.00
2023-04-05T23:56:40.597Z,1.86
2023-04-05T23:59:09.355Z,1.96
